KLXN

Jim Kelly Field Airport

Lexington, Nebraska, USA
METAR KLXN 151215Z AUTO 30009KT 10SM CLR 00/M03 A2997 RMK AO2 T10051035
Observed Flight Rules
Nov-15 @ 12:15 UTC (27 minutes ago) Visual Flight Rules
Wind Visibility Clouds
300° at 9 knots 10 miles
  • Clear skies
Temperatures Readings
Current -1°C / 30°F
Dewpoint -4°C / 25°F
Humidity 80%
Altimeter 29.97" Hg
Pressure 1015 hPa
Elevation 734
METAR KLXN 151215Z AUTO 30009KT 10SM CLR 00/M03 A2997 RMK AO2 T10051035
Observed Flight Rules
Nov-15 @ 12:15 UTC
(27 minutes ago)
VFR
Wind Visibility
300° at 9 knots 10 miles
Clouds
  • Clear skies
Temperature Dewpoint
-1°C / 30°F -4°C / 25°F
Humidity Altimeter Pressure
80% 29.97" Hg 1015 hPa